createdAt,value
2022-08-12T00:02:04.183Z,1.50
2022-08-12T00:04:06.640Z,1.50
2022-08-12T00:06:28.391Z,1.90
2022-08-12T00:08:53.848Z,1.80
2022-08-12T00:11:15.627Z,1.97
2022-08-12T00:13:37.144Z,2.03
2022-08-12T00:16:02.917Z,2.20
2022-08-12T00:18:24.484Z,1.90
2022-08-12T00:20:45.822Z,1.50
2022-08-12T00:23:08.101Z,1.73
2022-08-12T00:26:05.721Z,1.50
2022-08-12T00:28:10.387Z,2.07
2022-08-12T00:30:32.560Z,2.00
2022-08-12T00:32:56.777Z,1.80
2022-08-12T00:35:18.632Z,1.80
2022-08-12T00:37:41.352Z,1.80
2022-08-12T00:40:04.679Z,1.80
2022-08-12T00:42:13.581Z,1.90
2022-08-12T00:44:16.850Z,2.30
2022-08-12T00:46:31.960Z,2.13
2022-08-12T00:48:35.197Z,1.77
2022-08-12T00:50:40.869Z,1.70
2022-08-12T00:52:48.557Z,1.57
2022-08-12T00:54:58.956Z,1.97
2022-08-12T00:57:10.884Z,2.27
2022-08-12T00:59:14.077Z,1.93
2022-08-12T01:01:17.757Z,2.30
2022-08-12T01:03:21.701Z,2.07
2022-08-12T01:05:44.077Z,2.40
2022-08-12T01:08:07.445Z,2.30
2022-08-12T01:10:32.875Z,2.33
2022-08-12T01:12:39.446Z,2.53
2022-08-12T01:14:43.897Z,2.00
2022-08-12T01:16:48.466Z,2.23
2022-08-12T01:18:56.133Z,2.30
2022-08-12T01:21:24.808Z,2.27
2022-08-12T01:23:45.034Z,2.07
2022-08-12T01:25:56.076Z,2.10
2022-08-12T01:28:01.958Z,2.27
2022-08-12T01:30:08.799Z,2.20
2022-08-12T01:32:17.316Z,2.43
2022-08-12T01:34:36.891Z,2.33
2022-08-12T01:36:46.818Z,3.00
2022-08-12T01:38:51.209Z,2.00
2022-08-12T01:40:59.185Z,2.20
2022-08-12T01:43:11.299Z,1.87
2022-08-12T01:45:17.607Z,1.90
2022-08-12T01:47:51.854Z,1.90
2022-08-12T01:50:20.950Z,2.17
2022-08-12T01:52:56.965Z,2.37
2022-08-12T01:55:01.153Z,2.30
2022-08-12T01:57:16.219Z,1.97
2022-08-12T01:59:59.752Z,1.80
2022-08-12T02:02:09.731Z,2.00
2022-08-12T02:05:27.686Z,1.92
2022-08-12T02:08:26.667Z,2.10
2022-08-12T02:11:19.069Z,1.88
2022-08-12T02:13:49.304Z,1.93
2022-08-12T02:16:16.910Z,1.70
2022-08-12T02:18:46.043Z,1.93
2022-08-12T02:21:05.704Z,1.88
2022-08-12T02:23:11.322Z,2.23
2022-08-12T02:25:29.295Z,1.93
2022-08-12T02:27:47.660Z,2.33
2022-08-12T02:29:50.313Z,1.90
2022-08-12T02:31:54.002Z,2.13
2022-08-12T02:33:58.895Z,2.57
2022-08-12T02:36:03.587Z,2.35
2022-08-12T02:38:11.911Z,2.70
2022-08-12T02:40:17.682Z,2.40
2022-08-12T02:42:23.528Z,2.10
2022-08-12T02:44:29.408Z,2.90
2022-08-12T02:46:34.745Z,3.00
2022-08-12T02:48:52.032Z,3.00
2022-08-12T02:51:06.520Z,2.90
2022-08-12T02:53:10.728Z,3.10
2022-08-12T02:55:33.935Z,2.77
2022-08-12T02:57:38.072Z,3.10
2022-08-12T02:59:41.577Z,2.43
2022-08-12T03:01:51.697Z,3.20
2022-08-12T03:03:58.407Z,2.90
2022-08-12T03:06:16.900Z,2.80
2022-08-12T03:08:32.815Z,2.60
2022-08-12T03:10:41.845Z,2.77
2022-08-12T03:12:53.612Z,2.70
2022-08-12T03:14:59.414Z,3.00
2022-08-12T03:17:30.734Z,2.97
2022-08-12T03:19:33.439Z,2.90
2022-08-12T03:21:52.659Z,3.00
2022-08-12T03:24:07.229Z,3.10
2022-08-12T03:26:10.842Z,3.43
2022-08-12T03:28:34.386Z,2.80
2022-08-12T03:30:38.588Z,2.73
2022-08-12T03:32:47.170Z,2.70
2022-08-12T03:34:51.452Z,3.27
2022-08-12T03:36:55.353Z,2.80
2022-08-12T03:39:36.121Z,2.50
2022-08-12T03:41:50.198Z,2.97
2022-08-12T03:44:25.672Z,2.77
2022-08-12T03:46:53.412Z,2.90
2022-08-12T03:49:16.155Z,3.60
2022-08-12T03:51:37.184Z,3.17
2022-08-12T03:53:58.861Z,4.00
2022-08-12T03:56:20.013Z,3.77
2022-08-12T03:58:41.435Z,3.53
2022-08-12T04:00:46.030Z,3.33
2022-08-12T04:02:59.687Z,3.37
2022-08-12T04:05:02.813Z,3.20
2022-08-12T04:07:09.116Z,3.20
2022-08-12T04:09:15.855Z,3.17
2022-08-12T04:11:46.981Z,2.70
2022-08-12T04:13:50.452Z,2.60
2022-08-12T04:15:53.212Z,2.73
2022-08-12T04:18:07.545Z,2.90
2022-08-12T04:20:12.464Z,2.87
2022-08-12T04:22:16.378Z,2.60
2022-08-12T04:24:20.782Z,3.53
2022-08-12T04:26:23.324Z,2.80
2022-08-12T04:28:28.258Z,2.80
2022-08-12T04:30:33.616Z,3.57
2022-08-12T04:32:42.249Z,2.67
2022-08-12T04:34:46.821Z,2.33
2022-08-12T04:36:49.546Z,2.58
2022-08-12T04:38:56.470Z,3.10
2022-08-12T04:41:04.402Z,2.60
2022-08-12T04:43:07.230Z,2.30
2022-08-12T04:45:33.150Z,2.50
2022-08-12T04:47:36.046Z,2.30
2022-08-12T04:49:40.927Z,2.67
2022-08-12T04:51:44.019Z,3.27
2022-08-12T04:54:01.484Z,3.10
2022-08-12T04:56:04.712Z,3.47
2022-08-12T04:58:09.070Z,2.77
2022-08-12T05:00:14.201Z,3.37
2022-08-12T05:02:22.772Z,2.73
2022-08-12T05:04:26.625Z,2.90
2022-08-12T05:06:29.378Z,2.30
2022-08-12T05:08:32.054Z,2.90
2022-08-12T05:10:35.651Z,2.30
2022-08-12T05:12:48.368Z,2.80
2022-08-12T05:14:50.958Z,3.20
2022-08-12T05:16:53.590Z,2.53
2022-08-12T05:18:56.222Z,2.70
2022-08-12T05:21:00.179Z,3.50
2022-08-12T05:23:15.090Z,3.40
2022-08-12T05:25:19.521Z,3.40
2022-08-12T05:27:25.009Z,3.60
2022-08-12T05:30:08.273Z,3.70
2022-08-12T05:31:56.865Z,3.07
2022-08-12T05:33:59.485Z,3.33
2022-08-12T05:36:02.111Z,2.97
2022-08-12T05:38:23.561Z,3.60
2022-08-12T05:40:26.109Z,3.33
2022-08-12T05:42:42.323Z,2.80
2022-08-12T05:44:45.067Z,3.10
2022-08-12T05:46:47.842Z,2.70
2022-08-12T05:48:52.326Z,2.70
2022-08-12T05:50:56.801Z,2.90
2022-08-12T05:52:59.394Z,2.10
2022-08-12T05:55:02.902Z,2.60
2022-08-12T05:57:05.921Z,2.43
2022-08-12T05:59:12.571Z,2.50
2022-08-12T06:02:12.521Z,2.70
2022-08-12T06:03:38.292Z,2.40
2022-08-12T06:05:54.206Z,2.23
2022-08-12T06:07:59.777Z,2.17
2022-08-12T06:10:06.068Z,2.43
2022-08-12T06:12:09.003Z,2.40
2022-08-12T06:14:11.873Z,2.57
2022-08-12T06:16:18.553Z,2.10
2022-08-12T06:18:21.501Z,2.25
2022-08-12T06:20:29.299Z,2.50
2022-08-12T06:22:34.561Z,3.53
2022-08-12T06:24:37.333Z,3.13
2022-08-12T06:26:39.964Z,3.43
2022-08-12T06:28:43.862Z,2.80
2022-08-12T06:31:08.172Z,4.70
2022-08-12T06:33:55.503Z,4.40
2022-08-12T06:35:48.954Z,4.83
2022-08-12T06:37:57.615Z,3.93
2022-08-12T06:40:03.874Z,3.60
2022-08-12T06:42:32.152Z,3.47
2022-08-12T06:44:35.870Z,3.85
2022-08-12T06:46:38.856Z,4.07
2022-08-12T06:48:42.833Z,3.75
2022-08-12T06:50:46.667Z,4.00
2022-08-12T06:52:50.853Z,4.00
2022-08-12T06:54:55.411Z,3.50
2022-08-12T06:58:06.399Z,3.60
2022-08-12T06:59:21.662Z,3.50
2022-08-12T07:01:27.688Z,2.73
2022-08-12T07:03:30.407Z,3.63
2022-08-12T07:05:33.101Z,3.40
2022-08-12T07:07:38.910Z,3.10
2022-08-12T07:10:06.653Z,3.00
2022-08-12T07:12:05.804Z,2.70
2022-08-12T07:14:12.747Z,2.80
2022-08-12T07:16:19.018Z,2.83
2022-08-12T07:18:27.343Z,3.17
2022-08-12T07:20:51.721Z,2.20
2022-08-12T07:22:53.577Z,2.10
2022-08-12T07:25:14.739Z,2.00
2022-08-12T07:27:18.880Z,1.77
2022-08-12T07:29:23.033Z,2.73
2022-08-12T07:31:25.874Z,2.60
2022-08-12T07:33:30.033Z,2.73
2022-08-12T07:35:34.875Z,2.60
2022-08-12T07:37:42.464Z,2.23
2022-08-12T07:39:50.085Z,2.40
2022-08-12T07:42:01.960Z,2.73
2022-08-12T07:44:07.883Z,2.30
2022-08-12T07:46:15.149Z,2.20
2022-08-12T07:48:17.896Z,1.67
2022-08-12T07:50:23.923Z,1.70
2022-08-12T07:52:26.659Z,1.60
2022-08-12T07:54:29.263Z,1.90
2022-08-12T07:56:32.328Z,1.80
2022-08-12T07:58:40.540Z,2.17
2022-08-12T08:00:45.576Z,1.70
2022-08-12T08:02:49.366Z,1.60
2022-08-12T08:04:57.691Z,1.43
2022-08-12T08:07:01.907Z,1.50
2022-08-12T08:09:05.353Z,1.50
2022-08-12T08:11:26.812Z,1.50
2022-08-12T08:13:29.393Z,1.20
2022-08-12T08:16:01.294Z,1.33
2022-08-12T08:18:02.899Z,2.13
2022-08-12T08:20:08.543Z,1.60
2022-08-12T08:22:11.135Z,1.23
2022-08-12T08:24:16.438Z,2.10
2022-08-12T08:26:22.525Z,1.23
2022-08-12T08:28:25.081Z,1.40
2022-08-12T08:30:30.291Z,1.50
2022-08-12T08:32:32.854Z,1.50
2022-08-12T08:34:53.616Z,1.40
2022-08-12T08:36:57.872Z,1.30
2022-08-12T08:39:00.450Z,1.20
2022-08-12T08:42:13.981Z,1.53
2022-08-12T08:43:46.442Z,1.70
2022-08-12T08:45:49.444Z,1.50
2022-08-12T08:47:52.313Z,2.03
2022-08-12T08:50:01.077Z,1.80
2022-08-12T08:52:10.166Z,1.60
2022-08-12T08:54:13.253Z,2.00
2022-08-12T08:56:15.791Z,1.33
2022-08-12T08:58:21.213Z,1.50
2022-08-12T09:00:24.035Z,1.80
2022-08-12T09:02:27.346Z,2.37
2022-08-12T09:05:13.342Z,1.60
2022-08-12T09:06:56.621Z,1.37
2022-08-12T09:08:59.398Z,1.90
2022-08-12T09:12:06.420Z,1.83
2022-08-12T09:14:11.333Z,1.70
2022-08-12T09:16:08.592Z,1.80
2022-08-12T09:18:11.862Z,1.50
2022-08-12T09:20:17.499Z,1.50
2022-08-12T09:22:21.040Z,1.67
2022-08-12T09:24:27.900Z,1.53
2022-08-12T09:29:00.744Z,1.70
2022-08-12T09:32:07.061Z,1.50
2022-08-12T09:34:25.367Z,1.90
2022-08-12T09:36:04.950Z,2.07
2022-08-12T09:38:20.961Z,1.80
2022-08-12T09:40:57.711Z,1.53
2022-08-12T09:43:16.713Z,2.37
2022-08-12T09:45:23.216Z,1.70
2022-08-12T09:47:29.285Z,2.13
2022-08-12T09:49:39.939Z,1.80
2022-08-12T09:51:47.586Z,1.90
2022-08-12T09:54:08.348Z,1.30
2022-08-12T09:57:00.812Z,2.20
2022-08-12T09:58:56.892Z,1.70
2022-08-12T10:01:15.184Z,1.87
2022-08-12T10:03:31.879Z,1.40
2022-08-12T10:06:26.906Z,1.87
2022-08-12T10:08:11.568Z,1.70
2022-08-12T10:10:25.125Z,1.70
2022-08-12T10:13:07.233Z,2.10
2022-08-12T10:15:15.462Z,1.70
2022-08-12T10:18:06.162Z,1.33
2022-08-12T10:20:01.770Z,1.40
2022-08-12T10:22:16.510Z,1.40
2022-08-12T10:24:21.759Z,1.90
2022-08-12T10:26:44.773Z,1.60
2022-08-12T10:29:27.723Z,1.40
2022-08-12T10:31:29.115Z,1.47
2022-08-12T10:34:05.469Z,1.80
2022-08-12T10:36:12.452Z,1.40
2022-08-12T10:38:36.387Z,1.60
2022-08-12T10:41:00.073Z,1.90
2022-08-12T10:43:21.188Z,1.60
2022-08-12T10:45:23.953Z,1.90
2022-08-12T10:48:15.906Z,1.80
2022-08-12T10:50:07.063Z,1.87
2022-08-12T10:52:34.176Z,1.75
2022-08-12T10:54:42.615Z,1.77
2022-08-12T10:56:49.030Z,1.90
2022-08-12T10:58:55.984Z,1.20
2022-08-12T11:01:48.855Z,1.73
2022-08-12T11:04:31.479Z,1.80
2022-08-12T11:07:05.911Z,1.93
2022-08-12T11:08:33.860Z,1.50
2022-08-12T11:10:31.827Z,1.80
2022-08-12T11:12:59.678Z,1.57
2022-08-12T11:15:19.286Z,1.70
2022-08-12T11:17:43.095Z,1.57
2022-08-12T11:19:46.814Z,1.40
2022-08-12T11:21:58.180Z,1.80
2022-08-12T11:24:04.639Z,1.90
2022-08-12T11:26:08.037Z,1.60
2022-08-12T11:28:13.523Z,1.83
2022-08-12T11:30:32.841Z,1.73
2022-08-12T11:32:38.960Z,2.00
2022-08-12T11:34:51.611Z,2.00
2022-08-12T11:37:04.927Z,1.80
2022-08-12T11:39:07.988Z,1.63
2022-08-12T11:41:15.151Z,1.53
2022-08-12T11:43:19.736Z,1.80
2022-08-12T11:45:23.113Z,1.70
2022-08-12T11:47:25.892Z,1.67
2022-08-12T11:49:31.264Z,1.40
2022-08-12T11:51:36.442Z,1.70
2022-08-12T11:53:58.233Z,1.43
2022-08-12T11:56:07.065Z,1.70
2022-08-12T11:59:11.325Z,1.63
2022-08-12T12:02:54.946Z,2.60
2022-08-12T12:04:58.346Z,2.10
2022-08-12T12:07:07.646Z,1.90
2022-08-12T12:09:13.775Z,2.00
2022-08-12T12:11:19.658Z,2.20
2022-08-12T12:14:05.340Z,1.50
2022-08-12T12:15:45.189Z,1.67
2022-08-12T12:17:55.851Z,1.73
2022-08-12T12:19:58.736Z,1.90
2022-08-12T12:22:01.341Z,1.20
2022-08-12T12:24:04.449Z,2.30
2022-08-12T12:26:09.860Z,2.10
2022-08-12T12:28:38.061Z,2.07
2022-08-12T12:30:41.157Z,1.55
2022-08-12T12:32:58.182Z,1.90
2022-08-12T12:35:13.466Z,1.60
2022-08-12T12:37:58.987Z,1.60
2022-08-12T12:39:55.498Z,1.47
2022-08-12T12:42:42.528Z,1.50
2022-08-12T12:44:25.873Z,1.40
2022-08-12T12:46:41.624Z,1.85
2022-08-12T12:48:47.277Z,1.77
2022-08-12T12:51:13.103Z,1.73
2022-08-12T12:54:07.812Z,1.88
2022-08-12T12:55:46.310Z,1.60
2022-08-12T12:58:00.652Z,1.00
2022-08-12T13:00:17.798Z,1.67
2022-08-12T13:02:31.289Z,1.70
2022-08-12T13:04:35.067Z,1.70
2022-08-12T13:06:41.299Z,1.70
2022-08-12T13:08:44.769Z,1.80
2022-08-12T13:10:50.385Z,2.30
2022-08-12T13:12:54.841Z,1.90
2022-08-12T13:14:57.732Z,1.80
2022-08-12T13:17:02.831Z,1.67
2022-08-12T13:19:07.748Z,2.00
2022-08-12T13:21:15.655Z,2.30
2022-08-12T13:23:36.001Z,2.20
2022-08-12T13:25:43.049Z,2.07
2022-08-12T13:27:48.580Z,2.03
2022-08-12T13:29:51.225Z,2.10
2022-08-12T13:32:19.795Z,2.27
2022-08-12T13:34:32.260Z,2.63
2022-08-12T13:36:38.266Z,1.87
2022-08-12T13:38:44.304Z,2.00
2022-08-12T13:40:58.558Z,2.10
2022-08-12T13:43:02.468Z,2.47
2022-08-12T13:45:09.009Z,1.50
2022-08-12T13:47:19.679Z,1.70
2022-08-12T13:49:55.186Z,1.77
2022-08-12T13:51:52.846Z,2.00
2022-08-12T13:53:58.964Z,2.17
2022-08-12T13:56:03.118Z,1.90
2022-08-12T13:58:12.511Z,1.67
2022-08-12T14:00:16.035Z,2.00
2022-08-12T14:02:22.709Z,1.60
2022-08-12T14:04:27.349Z,1.90
2022-08-12T14:06:32.107Z,2.10
2022-08-12T14:08:35.252Z,2.10
2022-08-12T14:10:50.678Z,1.63
2022-08-12T14:12:55.831Z,1.80
2022-08-12T14:14:59.015Z,1.70
2022-08-12T14:17:09.813Z,1.80
2022-08-12T14:19:22.841Z,1.80
2022-08-12T14:21:30.042Z,1.70
2022-08-12T14:24:04.185Z,1.57
2022-08-12T14:26:13.096Z,2.20
2022-08-12T14:28:20.973Z,1.90
2022-08-12T14:30:29.176Z,1.30
2022-08-12T14:32:39.942Z,1.53
2022-08-12T14:34:42.927Z,3.00
2022-08-12T14:36:47.963Z,2.30
2022-08-12T14:38:54.251Z,2.23
2022-08-12T14:41:00.320Z,2.10
2022-08-12T14:43:06.226Z,1.90
2022-08-12T14:45:09.760Z,2.20
2022-08-12T14:47:15.439Z,1.93
2022-08-12T14:50:00.741Z,2.00
2022-08-12T14:52:57.661Z,1.73
2022-08-12T14:56:59.368Z,1.83
2022-08-12T14:59:23.118Z,2.25
2022-08-12T15:01:42.446Z,1.90
2022-08-12T15:03:52.757Z,2.00
2022-08-12T15:06:43.878Z,2.33
2022-08-12T15:08:37.396Z,1.60
2022-08-12T15:10:49.884Z,1.90
2022-08-12T15:12:58.311Z,2.10
2022-08-12T15:15:00.965Z,1.63
2022-08-12T15:17:07.057Z,1.70
2022-08-12T15:20:11.723Z,2.20
2022-08-12T15:22:37.443Z,1.80
2022-08-12T15:23:57.110Z,2.30
2022-08-12T15:26:05.131Z,2.93
2022-08-12T15:28:20.397Z,2.13
2022-08-12T15:30:24.886Z,2.50
2022-08-12T15:32:32.927Z,2.27
2022-08-12T15:34:38.842Z,1.93
2022-08-12T15:36:53.694Z,2.47
2022-08-12T15:38:57.956Z,2.27
2022-08-12T15:41:00.806Z,2.20
2022-08-12T15:43:08.110Z,2.50
2022-08-12T15:45:11.111Z,2.80
2022-08-12T15:47:47.951Z,2.50
2022-08-12T15:49:59.807Z,2.60
2022-08-12T15:52:05.001Z,2.47
2022-08-12T15:54:31.386Z,2.23
2022-08-12T15:56:37.285Z,2.37
2022-08-12T15:58:43.906Z,2.57
2022-08-12T16:00:48.090Z,1.73
2022-08-12T16:02:59.739Z,2.67
2022-08-12T16:05:02.306Z,2.40
2022-08-12T16:07:26.057Z,1.77
2022-08-12T16:10:05.586Z,2.67
2022-08-12T16:11:56.855Z,2.47
2022-08-12T16:14:03.346Z,2.50
2022-08-12T16:16:12.146Z,2.17
2022-08-12T16:18:26.393Z,2.00
2022-08-12T16:20:33.110Z,2.20
2022-08-12T16:22:36.471Z,2.00
2022-08-12T16:24:44.691Z,1.90
2022-08-12T16:26:51.432Z,1.87
2022-08-12T16:28:57.068Z,1.10
2022-08-12T16:31:18.708Z,2.37
2022-08-12T16:33:59.467Z,2.20
2022-08-12T16:36:06.226Z,2.15
2022-08-12T16:38:28.539Z,2.70
2022-08-12T16:40:32.448Z,2.73
2022-08-12T16:42:53.654Z,2.20
2022-08-12T16:45:05.786Z,2.10
2022-08-12T16:47:12.122Z,2.73
2022-08-12T16:49:19.356Z,2.23
2022-08-12T16:51:25.451Z,2.10
2022-08-12T16:53:30.768Z,2.60
2022-08-12T16:55:47.483Z,1.97
2022-08-12T16:57:56.510Z,2.80
2022-08-12T16:59:59.256Z,2.67
2022-08-12T17:02:02.479Z,2.57
2022-08-12T17:04:09.429Z,2.20
2022-08-12T17:06:12.857Z,2.93
2022-08-12T17:08:29.149Z,2.23
2022-08-12T17:10:35.514Z,2.50
2022-08-12T17:12:39.663Z,2.30
2022-08-12T17:14:42.682Z,2.53
2022-08-12T17:16:51.986Z,2.30
2022-08-12T17:18:56.980Z,2.63
2022-08-12T17:21:07.550Z,3.07
2022-08-12T17:23:14.494Z,2.07
2022-08-12T17:25:17.317Z,2.57
2022-08-12T17:27:20.264Z,2.90
2022-08-12T17:29:32.163Z,2.90
2022-08-12T17:32:00.970Z,2.70
2022-08-12T17:34:06.347Z,3.50
2022-08-12T17:36:23.850Z,2.30
2022-08-12T17:38:29.516Z,2.93
2022-08-12T17:40:36.981Z,2.80
2022-08-12T17:42:47.706Z,2.43
2022-08-12T17:44:51.934Z,2.00
2022-08-12T17:46:57.319Z,2.23
2022-08-12T17:48:59.978Z,2.70
2022-08-12T17:51:06.837Z,2.67
2022-08-12T17:53:11.009Z,3.27
2022-08-12T17:55:33.546Z,3.53
2022-08-12T17:57:41.864Z,2.90
2022-08-12T17:59:49.030Z,2.93
2022-08-12T18:01:52.634Z,3.27
2022-08-12T18:03:58.178Z,2.90
2022-08-12T18:06:18.341Z,2.40
2022-08-12T18:08:22.456Z,3.00
2022-08-12T18:10:52.943Z,2.80
2022-08-12T18:12:56.199Z,2.40
2022-08-12T18:15:02.086Z,2.40
2022-08-12T18:17:08.792Z,1.93
2022-08-12T18:19:12.437Z,2.00
2022-08-12T18:21:15.493Z,1.90
2022-08-12T18:23:24.184Z,2.50
2022-08-12T18:26:14.244Z,2.60
2022-08-12T18:28:16.954Z,2.90
2022-08-12T18:30:29.894Z,2.60
2022-08-12T18:32:58.483Z,2.07
2022-08-12T18:35:10.835Z,2.60
2022-08-12T18:37:39.649Z,2.20
2022-08-12T18:39:55.698Z,2.40
2022-08-12T18:41:59.509Z,2.07
2022-08-12T18:44:09.366Z,2.17
2022-08-12T18:46:16.315Z,2.10
2022-08-12T18:48:21.631Z,4.65
2022-08-12T18:50:24.691Z,8.40
2022-08-12T18:52:33.750Z,10.80
2022-08-12T18:54:49.264Z,9.70
2022-08-12T18:57:03.878Z,10.00
2022-08-12T18:59:10.131Z,8.38
2022-08-12T19:02:11.725Z,7.03
2022-08-12T19:03:40.046Z,6.35
2022-08-12T19:05:53.173Z,5.50
2022-08-12T19:08:01.782Z,5.03
2022-08-12T19:10:07.704Z,5.17
2022-08-12T19:12:56.901Z,5.30
2022-08-12T19:15:04.271Z,4.40
2022-08-12T19:17:11.418Z,3.63
2022-08-12T19:19:17.436Z,3.83
2022-08-12T19:21:21.092Z,3.60
2022-08-12T19:23:35.135Z,3.80
2022-08-12T19:26:00.673Z,3.53
2022-08-12T19:28:05.024Z,2.63
2022-08-12T19:30:09.218Z,3.20
2022-08-12T19:32:23.259Z,3.20
2022-08-12T19:37:01.799Z,5.33
2022-08-12T19:39:14.945Z,5.80
2022-08-12T19:41:22.876Z,6.40
2022-08-12T19:43:26.253Z,15.77
2022-08-12T19:45:56.235Z,27.37
2022-08-12T19:48:02.774Z,31.83
2022-08-12T19:50:06.742Z,31.23
2022-08-12T19:52:11.813Z,28.00
2022-08-12T19:54:23.745Z,25.00
2022-08-12T19:56:32.911Z,18.43
2022-08-12T19:58:35.569Z,12.32
2022-08-12T20:00:42.234Z,9.17
2022-08-12T20:02:48.478Z,7.87
2022-08-12T20:06:06.140Z,6.50
2022-08-12T20:07:23.331Z,6.17
2022-08-12T20:09:28.009Z,5.30
2022-08-12T20:12:13.026Z,3.80
2022-08-12T20:14:19.181Z,3.20
2022-08-12T20:16:50.669Z,2.93
2022-08-12T20:18:57.130Z,3.27
2022-08-12T20:21:00.181Z,3.73
2022-08-12T20:23:06.394Z,2.85
2022-08-12T20:25:12.357Z,3.40
2022-08-12T20:27:29.390Z,3.47
2022-08-12T20:29:46.391Z,3.60
2022-08-12T20:31:52.507Z,3.77
2022-08-12T20:33:56.618Z,3.90
2022-08-12T20:36:13.162Z,3.53
2022-08-12T20:38:26.993Z,3.43
2022-08-12T20:40:30.110Z,3.93
2022-08-12T20:42:34.688Z,3.67
2022-08-12T20:44:40.842Z,3.37
2022-08-12T20:46:43.412Z,3.20
2022-08-12T20:48:55.246Z,3.00
2022-08-12T20:51:04.171Z,3.23
2022-08-12T20:53:07.490Z,2.70
2022-08-12T20:55:19.282Z,2.83
2022-08-12T20:57:23.109Z,3.40
2022-08-12T20:59:31.907Z,3.10
2022-08-12T21:01:46.166Z,3.53
2022-08-12T21:04:09.163Z,3.70
2022-08-12T21:06:33.100Z,4.10
2022-08-12T21:08:35.709Z,3.63
2022-08-12T21:10:38.380Z,3.35
2022-08-12T21:12:42.005Z,3.50
2022-08-12T21:14:53.344Z,3.22
2022-08-12T21:17:00.851Z,3.70
2022-08-12T21:19:08.095Z,3.73
2022-08-12T21:21:23.575Z,3.75
2022-08-12T21:23:30.921Z,3.50
2022-08-12T21:25:45.609Z,3.47
2022-08-12T21:27:59.580Z,4.40
2022-08-12T21:30:06.126Z,4.00
2022-08-12T21:32:40.111Z,3.33
2022-08-12T21:34:31.616Z,3.97
2022-08-12T21:36:39.965Z,3.67
2022-08-12T21:38:42.689Z,4.00
2022-08-12T21:40:52.678Z,4.60
2022-08-12T21:42:55.520Z,4.43
2022-08-12T21:45:46.083Z,4.80
2022-08-12T21:47:22.448Z,4.00
2022-08-12T21:49:55.680Z,4.13
2022-08-12T21:51:51.367Z,4.00
2022-08-12T21:54:07.889Z,4.50
2022-08-12T21:56:33.983Z,4.07
2022-08-12T21:58:39.045Z,4.03
2022-08-12T22:00:42.007Z,4.43
2022-08-12T22:03:03.276Z,4.40
2022-08-12T22:05:24.445Z,4.13
2022-08-12T22:07:28.803Z,4.13
2022-08-12T22:09:54.260Z,4.23
2022-08-12T22:12:20.957Z,4.40
2022-08-12T22:14:23.922Z,5.43
2022-08-12T22:16:30.838Z,6.10
2022-08-12T22:18:42.179Z,4.70
2022-08-12T22:20:45.314Z,4.77
2022-08-12T22:22:56.032Z,5.00
2022-08-12T22:25:00.446Z,5.20
2022-08-12T22:27:18.017Z,4.80
2022-08-12T22:29:49.982Z,4.60
2022-08-12T22:31:54.578Z,4.37
2022-08-12T22:34:00.201Z,5.20
2022-08-12T22:36:06.499Z,4.70
2022-08-12T22:38:19.768Z,4.87
2022-08-12T22:40:22.435Z,4.20
2022-08-12T22:42:45.114Z,4.20
2022-08-12T22:45:15.957Z,4.47
2022-08-12T22:47:45.779Z,4.83
2022-08-12T22:49:59.752Z,4.53
2022-08-12T22:52:10.498Z,4.80
2022-08-12T22:54:36.946Z,4.50
2022-08-12T22:56:37.189Z,5.20
2022-08-12T22:58:41.273Z,5.20
2022-08-12T23:00:48.427Z,4.47
2022-08-12T23:03:00.403Z,4.80
2022-08-12T23:05:10.559Z,4.38
2022-08-12T23:07:13.948Z,4.13
2022-08-12T23:09:34.574Z,4.90
2022-08-12T23:11:50.469Z,3.50
2022-08-12T23:13:57.048Z,4.60
2022-08-12T23:16:01.049Z,4.60
2022-08-12T23:18:03.724Z,4.70
2022-08-12T23:20:06.942Z,5.10
2022-08-12T23:22:36.140Z,4.95
2022-08-12T23:24:36.910Z,4.60
2022-08-12T23:26:59.780Z,5.28
2022-08-12T23:29:29.599Z,4.53
2022-08-12T23:32:02.715Z,4.50
2022-08-12T23:34:03.513Z,4.10
2022-08-12T23:36:07.604Z,3.80
2022-08-12T23:38:30.368Z,4.30
2022-08-12T23:40:34.642Z,4.30
2022-08-12T23:42:39.264Z,3.63
2022-08-12T23:44:52.721Z,3.65
2022-08-12T23:46:59.818Z,4.20
2022-08-12T23:49:04.192Z,3.67
2022-08-12T23:51:26.988Z,3.90
2022-08-12T23:53:35.131Z,3.93
2022-08-12T23:55:40.712Z,3.93
2022-08-12T23:58:17.622Z,3.83
